Custer, SD

3:08 AM MDT on September 20, 2014 (GMT -0600)
RAWS CUSTER SD US | Change Station
CLOSE
Current Station
Personal Weather Station
Location: Custer, SD
Elevation: 5820 ft
Nearby Weather Stations

Elev 5820 ft 43.78 °N, 103.64 °W | Updated 44 minutes ago

Partly Cloudy
Partly Cloudy
58 °F
Feels Like 58 °F
N
4
Wind Variable Wind from West
Gusts 8.0 mph

Today
High -- | Low -- °F
--% Chance of Precip.
Yesterday
High -- | Low -- °F
Precip. -- in
6:39 AM 6:55 PM
Waning Crescent, 13% visible
Pressure 29.94 in
Visibility 10.0 miles
Clouds Few 12000 ft
Dew Point 40 °F
Humidity 51%
Rainfall 0.00 in
Snow Depth Not available.
UV 0 out of 12
Pollen 6.10 out of 12
Air Quality Not available.
Flu Activity Not available.
METAR KCUT 200853Z AUTO 26004KT 10SM FEW120 13/04 A3012 RMK AO2 SLP137 T01280044 50004

More Conditions Fewer Conditions

Pressure 29.94 in
Visibility 10.0 miles
Clouds Few 12000 ft
Dew Point 40 °F
Humidity 51%
Rainfall 0.00 in
Snow Depth Not available.
UV 0 out of 12
Pollen 6.10 out of 12
Air Quality Not available.
Flu Activity Not available.
METAR KCUT 200853Z AUTO 26004KT 10SM FEW120 13/04 A3012 RMK AO2 SLP137 T01280044 50004

More Conditions Fewer Conditions

10-Day Weather Forecast

Almanac

Astronomy

Sep. 20, 2014 Rise Set
Actual Time 6:39 AM MDT 6:55 PM MDT
Civil Twilight 6:10 AM MDT 7:24 PM MDT
Nautical Twilight 5:37 AM MDT 7:57 PM MDT
Astronomical Twilight 5:02 AM MDT 8:32 PM MDT
Moon 3:15 AM MDT 5:04 PM MDT
Length of Visible Light 13h 13m
Length of Day
12h 15m
Tomorrow will be 2m 58s shorter.
Waning Crescent, 13% of the Moon is Illuminated
Today
Waning Crescent
Sep 24
New
Oct 1
First Quarter
Oct 8
Full
Oct 15
Last Quarter

Today's Extremes

State Highs State Lows

Community

WunderPhotos

Upload Photos

1,754,793 photos uploaded!

WunderBlogs® & News

Nearby

Snow Depth

Station Depth Elevation
Blind Park 0 in 6890 ft

Earthquake Activity

City Distance Mag. Time & Date
No recent earthquake activity has been reported nearby.
Minimum magnitude displayed is 2.5.

Coastal Water Temperatures

Place Temperature
No Stations Reporting

Nearby Weather Stations